createdAt,value
2018-04-24T00:00:33.298Z,964.13
2018-04-24T00:01:33.251Z,964.13
2018-04-24T00:02:33.209Z,964.13
2018-04-24T00:03:33.164Z,964.14
2018-04-24T00:04:33.119Z,964.12
2018-04-24T00:05:33.076Z,964.12
2018-04-24T00:06:33.033Z,964.18
2018-04-24T00:07:32.995Z,964.18
2018-04-24T00:08:32.941Z,964.18
2018-04-24T00:09:32.899Z,964.18
2018-04-24T00:10:32.854Z,964.16
2018-04-24T00:11:32.806Z,964.17
2018-04-24T00:12:32.765Z,964.19
2018-04-24T00:13:32.720Z,964.19
2018-04-24T00:14:32.675Z,964.19
2018-04-24T00:15:32.631Z,964.22
2018-04-24T00:16:32.587Z,964.21
2018-04-24T00:17:32.541Z,964.22
2018-04-24T00:18:32.497Z,964.23
2018-04-24T00:19:32.452Z,964.23
2018-04-24T00:20:32.407Z,964.24
2018-04-24T00:21:32.371Z,964.22
2018-04-24T00:22:32.319Z,964.23
2018-04-24T00:23:32.274Z,964.21
2018-04-24T00:24:32.235Z,964.23
2018-04-24T00:25:32.188Z,964.20
2018-04-24T00:26:32.145Z,964.22
2018-04-24T00:27:32.101Z,964.25
2018-04-24T00:28:32.053Z,964.22
2018-04-24T00:29:32.013Z,964.22
2018-04-24T00:30:31.966Z,964.21
2018-04-24T00:31:31.920Z,964.22
2018-04-24T00:32:31.875Z,964.23
2018-04-24T00:33:31.827Z,964.20
2018-04-24T00:34:31.788Z,964.22
2018-04-24T00:35:31.741Z,964.25
2018-04-24T00:36:31.700Z,964.24
2018-04-24T00:37:31.655Z,964.24
2018-04-24T00:38:31.607Z,964.26
2018-04-24T00:39:31.565Z,964.26
2018-04-24T00:40:31.520Z,964.27
2018-04-24T00:41:31.476Z,964.26
2018-04-24T00:42:31.433Z,964.26
2018-04-24T00:43:31.387Z,964.28
2018-04-24T00:44:31.342Z,964.25
2018-04-24T00:45:31.297Z,964.29
2018-04-24T00:46:31.258Z,964.27
2018-04-24T00:47:31.208Z,964.30
2018-04-24T00:48:31.167Z,964.30
2018-04-24T00:49:31.119Z,964.30
2018-04-24T00:50:31.075Z,964.28
2018-04-24T00:51:31.032Z,964.34
2018-04-24T00:52:30.987Z,964.34
2018-04-24T00:53:31.035Z,964.35
2018-04-24T00:54:30.901Z,964.38
2018-04-24T00:55:30.856Z,964.34
2018-04-24T00:56:30.810Z,964.39
2018-04-24T00:57:30.764Z,964.35
2018-04-24T00:58:30.720Z,964.35
2018-04-24T00:59:30.680Z,964.38
2018-04-24T01:00:30.630Z,964.35
2018-04-24T01:01:30.587Z,964.37
2018-04-24T01:02:30.544Z,964.33
2018-04-24T01:03:30.499Z,964.36
2018-04-24T01:04:30.451Z,964.32
2018-04-24T01:05:30.412Z,964.27
2018-04-24T01:06:30.364Z,964.31
2018-04-24T01:07:30.321Z,964.33
2018-04-24T01:08:30.280Z,964.32
2018-04-24T01:09:30.234Z,964.35
2018-04-24T01:10:30.186Z,964.29
2018-04-24T01:11:30.144Z,964.38
2018-04-24T01:12:30.098Z,964.41
2018-04-24T01:13:30.053Z,964.42
2018-04-24T01:14:30.012Z,964.42
2018-04-24T01:15:29.975Z,964.44
2018-04-24T01:16:29.920Z,964.45
2018-04-24T01:17:29.876Z,964.43
2018-04-24T01:18:29.854Z,964.44
2018-04-24T01:19:29.787Z,964.43
2018-04-24T01:20:29.747Z,964.42
2018-04-24T01:21:29.700Z,964.44
2018-04-24T01:22:29.655Z,964.44
2018-04-24T01:23:29.614Z,964.43
2018-04-24T01:24:29.565Z,964.42
2018-04-24T01:25:29.523Z,964.47
2018-04-24T01:26:29.481Z,964.43
2018-04-24T01:27:29.432Z,964.46
2018-04-24T01:28:29.387Z,964.44
2018-04-24T01:29:29.345Z,964.46
2018-04-24T01:30:29.302Z,964.49
2018-04-24T01:31:29.257Z,964.46
2018-04-24T01:32:29.210Z,964.48
2018-04-24T01:33:29.171Z,964.48
2018-04-24T01:34:29.123Z,964.50
2018-04-24T01:35:29.082Z,964.48
2018-04-24T01:36:29.031Z,964.49
2018-04-24T01:37:28.995Z,964.50
2018-04-24T01:38:28.947Z,964.47
2018-04-24T01:39:28.900Z,964.53
2018-04-24T01:40:28.855Z,964.55
2018-04-24T01:41:28.811Z,964.54
2018-04-24T01:42:28.767Z,964.53
2018-04-24T01:43:28.722Z,964.59
2018-04-24T01:44:28.676Z,964.57
2018-04-24T01:45:28.633Z,964.61
2018-04-24T01:46:28.588Z,964.60
2018-04-24T01:47:28.545Z,964.66
2018-04-24T01:48:28.496Z,964.65
2018-04-24T01:49:28.453Z,964.62
2018-04-24T01:50:28.409Z,964.63
2018-04-24T01:51:28.363Z,964.64
2018-04-24T01:52:28.315Z,964.65
2018-04-24T01:53:28.274Z,964.66
2018-04-24T01:54:28.228Z,964.61
2018-04-24T01:55:28.182Z,964.66
2018-04-24T01:56:28.140Z,964.65
2018-04-24T01:57:28.097Z,964.70
2018-04-24T01:58:28.052Z,964.66
2018-04-24T01:59:28.008Z,964.72
2018-04-24T02:00:27.966Z,964.68
2018-04-24T02:01:27.914Z,964.69
2018-04-24T02:02:27.874Z,964.69
2018-04-24T02:03:27.833Z,964.69
2018-04-24T02:04:27.784Z,964.71
2018-04-24T02:05:27.740Z,964.67
2018-04-24T02:06:27.696Z,964.73
2018-04-24T02:07:27.650Z,964.67
2018-04-24T02:08:27.613Z,964.68
2018-04-24T02:09:27.563Z,964.70
2018-04-24T02:10:27.514Z,964.69
2018-04-24T02:11:27.473Z,964.72
2018-04-24T02:12:27.426Z,964.73
2018-04-24T02:13:27.382Z,964.73
2018-04-24T02:14:27.338Z,964.73
2018-04-24T02:15:27.292Z,964.69
2018-04-24T02:16:27.250Z,964.73
2018-04-24T02:17:27.204Z,964.71
2018-04-24T02:18:27.160Z,964.65
2018-04-24T02:19:27.114Z,964.71
2018-04-24T02:20:27.071Z,964.70
2018-04-24T02:21:27.027Z,964.70
2018-04-24T02:22:26.991Z,964.71
2018-04-24T02:23:26.935Z,964.72
2018-04-24T02:24:26.899Z,964.68
2018-04-24T02:25:26.848Z,964.69
2018-04-24T02:26:26.799Z,964.69
2018-04-24T02:27:26.755Z,964.66
2018-04-24T02:28:26.711Z,964.66
2018-04-24T02:29:26.673Z,964.62
2018-04-24T02:30:26.625Z,964.65
2018-04-24T02:31:26.579Z,964.68
2018-04-24T02:32:26.532Z,964.69
2018-04-24T02:33:26.493Z,964.69
2018-04-24T02:34:26.442Z,964.68
2018-04-24T02:35:26.399Z,964.70
2018-04-24T02:36:26.355Z,964.68
2018-04-24T02:37:26.309Z,964.64
2018-04-24T02:38:26.267Z,964.67
2018-04-24T02:39:26.220Z,964.67
2018-04-24T02:40:26.246Z,964.67
2018-04-24T02:41:26.131Z,964.66
2018-04-24T02:42:26.084Z,964.65
2018-04-24T02:43:26.040Z,964.67
2018-04-24T02:44:25.997Z,964.66
2018-04-24T02:45:25.955Z,964.68
2018-04-24T02:46:25.909Z,964.66
2018-04-24T02:47:25.860Z,964.69
2018-04-24T02:48:25.821Z,964.70
2018-04-24T02:49:25.772Z,964.67
2018-04-24T02:50:25.728Z,964.67
2018-04-24T02:51:25.681Z,964.69
2018-04-24T02:52:25.636Z,964.68
2018-04-24T02:53:25.591Z,964.66
2018-04-24T02:54:25.558Z,964.67
2018-04-24T02:55:25.500Z,964.70
2018-04-24T02:56:25.457Z,964.67
2018-04-24T02:57:25.415Z,964.66
2018-04-24T02:58:25.369Z,964.69
2018-04-24T02:59:25.321Z,964.71
2018-04-24T03:00:25.276Z,964.69
2018-04-24T03:01:25.232Z,964.70
2018-04-24T03:02:25.190Z,964.65
2018-04-24T03:03:25.141Z,964.67
2018-04-24T03:04:25.181Z,964.68
2018-04-24T03:05:25.051Z,964.72
2018-04-24T03:06:25.009Z,964.71
2018-04-24T03:07:24.960Z,964.69
2018-04-24T03:08:24.916Z,964.71
2018-04-24T03:09:24.873Z,964.69
2018-04-24T03:10:24.828Z,964.70
2018-04-24T03:11:24.782Z,964.69
2018-04-24T03:12:24.735Z,964.68
2018-04-24T03:13:24.697Z,964.69
2018-04-24T03:14:24.646Z,964.68
2018-04-24T03:15:24.603Z,964.65
2018-04-24T03:16:24.556Z,964.70
2018-04-24T03:17:24.516Z,964.65
2018-04-24T03:18:24.466Z,964.68
2018-04-24T03:19:24.421Z,964.63
2018-04-24T03:20:24.380Z,964.68
2018-04-24T03:21:24.334Z,964.70
2018-04-24T03:22:24.285Z,964.72
2018-04-24T03:23:24.243Z,964.62
2018-04-24T03:24:24.194Z,964.64
2018-04-24T03:25:24.153Z,964.59
2018-04-24T03:26:24.105Z,964.66
2018-04-24T03:27:24.062Z,964.58
2018-04-24T03:28:24.017Z,964.64
2018-04-24T03:29:23.972Z,964.64
2018-04-24T03:30:23.927Z,964.63
2018-04-24T03:31:23.881Z,964.63
2018-04-24T03:32:23.835Z,964.57
2018-04-24T03:33:23.791Z,964.60
2018-04-24T03:34:23.746Z,964.54
2018-04-24T03:35:23.700Z,964.58
2018-04-24T03:36:23.656Z,964.58
2018-04-24T03:37:23.610Z,964.63
2018-04-24T03:38:23.569Z,964.65
2018-04-24T03:39:23.524Z,964.63
2018-04-24T03:40:23.480Z,964.64
2018-04-24T03:41:23.442Z,964.66
2018-04-24T03:42:23.387Z,964.64
2018-04-24T03:43:23.346Z,964.65
2018-04-24T03:44:23.295Z,964.62
2018-04-24T03:45:23.252Z,964.66
2018-04-24T03:46:23.209Z,964.64
2018-04-24T03:47:23.161Z,964.64
2018-04-24T03:48:23.116Z,964.61
2018-04-24T03:49:23.071Z,964.63
2018-04-24T03:50:23.026Z,964.60
2018-04-24T03:51:22.980Z,964.60
2018-04-24T03:52:22.936Z,964.61
2018-04-24T03:53:22.891Z,964.60
2018-04-24T03:54:22.847Z,964.57
2018-04-24T03:55:22.800Z,964.56
2018-04-24T03:56:22.756Z,964.60
2018-04-24T03:57:22.710Z,964.57
2018-04-24T03:58:22.664Z,964.58
2018-04-24T03:59:22.619Z,964.58
2018-04-24T04:00:22.575Z,964.56
2018-04-24T04:01:22.531Z,964.56
2018-04-24T04:02:22.485Z,964.57
2018-04-24T04:03:22.438Z,964.56
2018-04-24T04:04:22.392Z,964.58
2018-04-24T04:05:22.351Z,964.58
2018-04-24T04:06:22.304Z,964.63
2018-04-24T04:07:22.258Z,964.65
2018-04-24T04:08:22.214Z,964.61
2018-04-24T04:09:22.171Z,964.59
2018-04-24T04:10:22.125Z,964.65
2018-04-24T04:11:22.080Z,964.65
2018-04-24T04:12:22.037Z,964.69
2018-04-24T04:13:21.984Z,964.69
2018-04-24T04:14:21.941Z,964.75
2018-04-24T04:15:21.901Z,964.75
2018-04-24T04:16:21.856Z,964.77
2018-04-24T04:17:21.811Z,964.78
2018-04-24T04:18:21.762Z,964.80
2018-04-24T04:19:21.726Z,964.78
2018-04-24T04:20:21.675Z,964.79
2018-04-24T04:21:21.627Z,964.74
2018-04-24T04:22:21.582Z,964.76
2018-04-24T04:23:21.536Z,964.75
2018-04-24T04:24:21.489Z,964.77
2018-04-24T04:25:21.453Z,964.78
2018-04-24T04:26:21.401Z,964.77
2018-04-24T04:27:21.357Z,964.77
2018-04-24T04:28:21.309Z,964.78
2018-04-24T04:29:21.266Z,964.78
2018-04-24T04:30:21.218Z,964.77
2018-04-24T04:31:21.172Z,964.83
2018-04-24T04:32:21.133Z,964.80
2018-04-24T04:33:21.082Z,964.83
2018-04-24T04:34:21.040Z,964.81
2018-04-24T04:35:20.994Z,964.81
2018-04-24T04:36:20.948Z,964.80
2018-04-24T04:37:20.908Z,964.83
2018-04-24T04:38:20.863Z,964.85
2018-04-24T04:39:20.814Z,964.89
2018-04-24T04:40:20.765Z,964.87
2018-04-24T04:41:20.768Z,964.88
2018-04-24T04:42:20.679Z,964.87
2018-04-24T04:43:20.632Z,964.90
2018-04-24T04:44:20.588Z,964.87
2018-04-24T04:45:20.541Z,964.85
2018-04-24T04:46:20.495Z,964.89
2018-04-24T04:47:20.452Z,964.88
2018-04-24T04:48:20.406Z,964.88
2018-04-24T04:49:20.361Z,964.88
2018-04-24T04:50:20.319Z,964.88
2018-04-24T04:51:20.272Z,964.95
2018-04-24T04:52:20.230Z,964.97
2018-04-24T04:53:20.181Z,964.99
2018-04-24T04:54:20.137Z,964.98
2018-04-24T04:55:20.146Z,964.98
2018-04-24T04:56:20.045Z,964.95
2018-04-24T04:57:20.000Z,964.98
2018-04-24T04:58:19.962Z,964.97
2018-04-24T04:59:19.910Z,965.00
2018-04-24T05:00:19.865Z,964.99
2018-04-24T05:01:19.821Z,964.97
2018-04-24T05:02:19.777Z,964.96
2018-04-24T05:03:19.732Z,964.98
2018-04-24T05:04:19.688Z,964.98
2018-04-24T05:05:19.671Z,964.99
2018-04-24T05:06:19.597Z,965.00
2018-04-24T05:07:19.554Z,965.00
2018-04-24T05:08:19.506Z,965.04
2018-04-24T05:09:19.464Z,965.03
2018-04-24T05:10:19.416Z,965.00
2018-04-24T05:11:19.371Z,965.02
2018-04-24T05:12:19.326Z,965.01
2018-04-24T05:13:19.280Z,965.02
2018-04-24T05:14:19.242Z,965.02
2018-04-24T05:15:19.193Z,965.02
2018-04-24T05:16:19.142Z,965.01
2018-04-24T05:17:19.111Z,965.01
2018-04-24T05:18:19.060Z,965.04
2018-04-24T05:19:19.019Z,965.04
2018-04-24T05:20:18.968Z,965.03
2018-04-24T05:21:18.925Z,965.05
2018-04-24T05:22:18.887Z,965.08
2018-04-24T05:23:18.839Z,965.10
2018-04-24T05:24:18.794Z,965.10
2018-04-24T05:25:18.752Z,965.12
2018-04-24T05:26:18.704Z,965.15
2018-04-24T05:27:18.665Z,965.11
2018-04-24T05:28:18.613Z,965.18
2018-04-24T05:29:18.575Z,965.14
2018-04-24T05:30:18.534Z,965.13
2018-04-24T05:31:18.491Z,965.15
2018-04-24T05:32:18.445Z,965.16
2018-04-24T05:33:18.396Z,965.15
2018-04-24T05:34:18.355Z,965.12
2018-04-24T05:35:18.310Z,965.12
2018-04-24T05:36:18.276Z,965.09
2018-04-24T05:37:18.226Z,965.12
2018-04-24T05:38:18.181Z,965.13
2018-04-24T05:39:18.147Z,965.14
2018-04-24T05:40:18.097Z,965.15
2018-04-24T05:41:18.053Z,965.11
2018-04-24T05:42:18.009Z,965.12
2018-04-24T05:43:17.959Z,965.13
2018-04-24T05:44:17.926Z,965.11
2018-04-24T05:45:17.954Z,965.07
2018-04-24T05:46:17.848Z,965.09
2018-04-24T05:47:17.790Z,965.13
2018-04-24T05:48:17.976Z,965.15
2018-04-24T05:49:17.701Z,965.16
2018-04-24T05:50:17.661Z,965.18
2018-04-24T05:51:17.611Z,965.16
2018-04-24T05:52:17.633Z,965.18
2018-04-24T05:53:17.520Z,965.15
2018-04-24T05:54:17.488Z,965.13
2018-04-24T05:55:49.404Z,965.14
2018-04-24T05:56:17.391Z,965.13
2018-04-24T05:57:17.426Z,965.09
2018-04-24T05:58:17.302Z,965.08
2018-04-24T05:59:17.260Z,965.05
2018-04-24T06:00:17.225Z,965.10
2018-04-24T06:01:17.177Z,965.16
2018-04-24T06:02:17.137Z,965.17
2018-04-24T06:03:17.087Z,965.14
2018-04-24T06:04:17.053Z,965.17
2018-04-24T06:05:17.002Z,965.17
2018-04-24T06:06:16.960Z,965.12
2018-04-24T06:07:16.916Z,965.16
2018-04-24T06:08:16.932Z,965.16
2018-04-24T06:09:16.834Z,965.20
2018-04-24T06:10:16.785Z,965.18
2018-04-24T06:11:16.737Z,965.22
2018-04-24T06:12:16.699Z,965.24
2018-04-24T06:13:16.808Z,965.18
2018-04-24T06:14:16.604Z,965.16
2018-04-24T06:15:16.565Z,965.15
2018-04-24T06:16:16.528Z,965.20
2018-04-24T06:17:16.480Z,965.19
2018-04-24T06:18:16.434Z,965.18
2018-04-24T06:19:16.406Z,965.18
2018-04-24T06:20:16.354Z,965.22
2018-04-24T06:21:16.307Z,965.20
2018-04-24T06:22:16.269Z,965.23
2018-04-24T06:23:16.223Z,965.29
2018-04-24T06:24:16.171Z,965.31
2018-04-24T06:25:16.138Z,965.27
2018-04-24T06:26:16.092Z,965.31
2018-04-24T06:27:16.059Z,965.33
2018-04-24T06:28:16.023Z,965.30
2018-04-24T06:29:15.962Z,965.35
2018-04-24T06:30:15.919Z,965.32
2018-04-24T06:31:15.893Z,965.41
2018-04-24T06:32:15.832Z,965.38
2018-04-24T06:33:15.787Z,965.43
2018-04-24T06:34:15.899Z,965.41
2018-04-24T06:35:15.698Z,965.41
2018-04-24T06:36:15.661Z,965.44
2018-04-24T06:37:15.613Z,965.47
2018-04-24T06:38:15.574Z,965.51
2018-04-24T06:39:15.596Z,965.49
2018-04-24T06:40:15.481Z,965.47
2018-04-24T06:41:15.437Z,965.51
2018-04-24T06:42:15.528Z,965.51
2018-04-24T06:43:15.353Z,965.55
2018-04-24T06:44:15.319Z,965.65
2018-04-24T06:45:15.274Z,965.65
2018-04-24T06:46:15.224Z,965.63
2018-04-24T06:47:15.178Z,965.60
2018-04-24T06:48:15.207Z,965.56
2018-04-24T06:49:15.110Z,965.56
2018-04-24T06:50:15.055Z,965.54
2018-04-24T06:51:15.004Z,965.58
2018-04-24T06:52:15.026Z,965.55
2018-04-24T06:53:14.926Z,965.55
2018-04-24T06:54:14.893Z,965.49
2018-04-24T06:55:14.842Z,965.42
2018-04-24T06:56:14.811Z,965.41
2018-04-24T06:57:14.763Z,965.46
2018-04-24T06:58:14.716Z,965.47
2018-04-24T06:59:14.676Z,965.43
2018-04-24T07:00:14.634Z,965.52
2018-04-24T07:01:14.587Z,965.47
2018-04-24T07:02:14.555Z,965.50
2018-04-24T07:03:14.518Z,965.46
2018-04-24T07:04:14.464Z,965.52
2018-04-24T07:05:14.422Z,965.53
2018-04-24T07:06:14.656Z,965.55
2018-04-24T07:07:14.348Z,965.53
2018-04-24T07:08:14.302Z,965.49
2018-04-24T07:09:14.278Z,965.52
2018-04-24T07:10:14.230Z,965.50
2018-04-24T07:11:14.177Z,965.50
2018-04-24T07:12:14.384Z,965.44
2018-04-24T07:13:14.100Z,965.49
2018-04-24T07:14:14.079Z,965.49
2018-04-24T07:15:14.003Z,965.48
2018-04-24T07:16:13.973Z,965.57
2018-04-24T07:17:13.939Z,965.58
2018-04-24T07:18:13.874Z,965.50
2018-04-24T07:19:13.833Z,965.58
2018-04-24T07:20:13.791Z,965.55
2018-04-24T07:21:13.755Z,965.54
2018-04-24T07:22:13.757Z,965.50
2018-04-24T07:23:13.684Z,965.50
2018-04-24T07:24:13.656Z,965.49
2018-04-24T07:25:13.609Z,965.48
2018-04-24T07:26:13.548Z,965.45
2018-04-24T07:27:13.529Z,965.43
2018-04-24T07:28:13.464Z,965.47
2018-04-24T07:29:13.440Z,965.43
2018-04-24T07:30:13.392Z,965.40
2018-04-24T07:31:13.338Z,965.41
2018-04-24T07:32:13.299Z,965.41
2018-04-24T07:33:27.935Z,965.40
2018-04-24T07:34:13.217Z,965.42
2018-04-24T07:35:13.169Z,965.43
2018-04-24T07:36:13.128Z,965.46
2018-04-24T07:37:13.082Z,965.42
2018-04-24T07:38:14.518Z,965.43
2018-04-24T07:39:12.997Z,965.46
2018-04-24T07:40:12.967Z,965.45
2018-04-24T07:41:12.941Z,965.48
2018-04-24T07:42:12.917Z,965.52
2018-04-24T07:43:12.868Z,965.57
2018-04-24T07:44:12.807Z,965.55
2018-04-24T07:45:12.755Z,965.51
2018-04-24T07:46:12.734Z,965.52
2018-04-24T07:47:12.891Z,965.47
2018-04-24T07:48:12.628Z,965.48
2018-04-24T07:49:12.604Z,965.43
2018-04-24T07:50:12.553Z,965.40
2018-04-24T07:51:12.510Z,965.41
2018-04-24T07:52:12.551Z,965.47
2018-04-24T07:53:12.425Z,965.46
2018-04-24T07:54:12.419Z,965.44
2018-04-24T07:55:12.345Z,965.46
2018-04-24T07:56:12.402Z,965.48
2018-04-24T07:57:12.366Z,965.43
2018-04-24T07:58:12.211Z,965.40
2018-04-24T07:59:12.246Z,965.41
2018-04-24T08:00:12.138Z,965.37
2018-04-24T08:01:12.094Z,965.32
2018-04-24T08:02:12.053Z,965.36
2018-04-24T08:03:12.007Z,965.41
2018-04-24T08:04:11.969Z,965.40
2018-04-24T08:05:11.926Z,965.41
2018-04-24T08:06:11.888Z,965.34
2018-04-24T08:07:12.443Z,965.33
2018-04-24T08:08:11.899Z,965.32
2018-04-24T08:09:11.756Z,965.29
2018-04-24T08:10:11.713Z,965.30
2018-04-24T08:11:11.705Z,965.23
2018-04-24T08:12:11.639Z,965.24
2018-04-24T08:13:11.681Z,965.27
2018-04-24T08:14:11.696Z,965.24
2018-04-24T08:15:11.504Z,965.24
2018-04-24T08:16:11.472Z,965.39
2018-04-24T08:17:11.710Z,965.31
2018-04-24T08:18:11.445Z,965.35
2018-04-24T08:19:11.381Z,965.30
2018-04-24T08:20:11.304Z,965.24
2018-04-24T08:21:11.549Z,965.24
2018-04-24T08:22:11.222Z,965.21
2018-04-24T08:23:11.190Z,965.28
2018-04-24T08:24:11.130Z,965.25
2018-04-24T08:25:11.101Z,965.19
2018-04-24T08:26:11.061Z,965.18
2018-04-24T08:27:11.017Z,965.17
2018-04-24T08:28:10.967Z,965.23
2018-04-24T08:29:10.979Z,965.24
2018-04-24T08:30:10.896Z,965.32
2018-04-24T08:31:10.841Z,965.28
2018-04-24T08:32:10.802Z,965.26
2018-04-24T08:33:10.760Z,965.26
2018-04-24T08:34:10.725Z,965.32
2018-04-24T08:35:10.789Z,965.26
2018-04-24T08:36:10.637Z,965.10
2018-04-24T08:37:10.598Z,965.19
2018-04-24T08:38:10.558Z,965.14
2018-04-24T08:39:10.526Z,965.05
2018-04-24T08:40:10.513Z,965.05
2018-04-24T08:41:10.525Z,964.99
2018-04-24T08:42:10.460Z,964.94
2018-04-24T08:43:10.751Z,965.05
2018-04-24T08:44:10.502Z,965.09
2018-04-24T08:45:10.331Z,965.01
2018-04-24T08:46:10.231Z,965.02
2018-04-24T08:47:10.191Z,964.99
2018-04-24T08:48:10.182Z,964.94
2018-04-24T08:49:10.129Z,964.94
2018-04-24T08:50:10.082Z,964.99
2018-04-24T08:51:10.027Z,965.01
2018-04-24T08:52:09.995Z,964.97
2018-04-24T08:53:09.947Z,965.02
2018-04-24T08:54:09.911Z,965.05
2018-04-24T08:55:09.874Z,965.05
2018-04-24T08:56:09.836Z,965.06
2018-04-24T08:57:09.791Z,965.01
2018-04-24T08:58:09.751Z,965.09
2018-04-24T08:59:09.790Z,965.05
2018-04-24T09:00:09.667Z,965.05
2018-04-24T09:01:09.634Z,965.06
2018-04-24T09:02:09.591Z,965.03
2018-04-24T09:03:09.540Z,965.09
2018-04-24T09:04:09.498Z,965.04
2018-04-24T09:05:09.462Z,965.01
2018-04-24T09:06:09.434Z,964.96
2018-04-24T09:07:09.377Z,965.04
2018-04-24T09:08:09.344Z,965.07
2018-04-24T09:09:09.371Z,965.13
2018-04-24T09:10:09.266Z,965.14
2018-04-24T09:11:09.885Z,965.01
2018-04-24T09:12:09.201Z,964.97
2018-04-24T09:13:09.137Z,965.03
2018-04-24T09:14:09.184Z,964.94
2018-04-24T09:15:09.961Z,964.90
2018-04-24T09:16:09.021Z,965.02
2018-04-24T09:17:08.980Z,965.05
2018-04-24T09:18:08.942Z,965.02
2018-04-24T09:19:08.892Z,965.01
2018-04-24T09:20:08.855Z,965.04
2018-04-24T09:21:08.837Z,965.01
2018-04-24T09:22:08.774Z,965.02
2018-04-24T09:23:08.737Z,964.92
2018-04-24T09:24:08.698Z,964.94
2018-04-24T09:25:08.664Z,964.89
2018-04-24T09:26:08.616Z,964.87
2018-04-24T09:27:08.607Z,964.90
2018-04-24T09:28:08.538Z,964.87
2018-04-24T09:29:08.583Z,964.99
2018-04-24T09:30:08.522Z,964.96
2018-04-24T09:31:08.406Z,965.00
2018-04-24T09:32:08.542Z,964.93
2018-04-24T09:33:08.333Z,964.96
2018-04-24T09:34:08.282Z,964.94
2018-04-24T09:35:08.237Z,964.97
2018-04-24T09:36:08.204Z,964.94
2018-04-24T09:37:08.160Z,964.94
2018-04-24T09:38:08.127Z,964.94
2018-04-24T09:39:08.087Z,964.87
2018-04-24T09:40:08.083Z,964.91
2018-04-24T09:41:08.005Z,964.87
2018-04-24T09:42:07.956Z,964.81
2018-04-24T09:43:07.917Z,964.84
2018-04-24T09:44:07.882Z,964.85
2018-04-24T09:45:07.885Z,964.78
2018-04-24T09:46:07.800Z,964.75
2018-04-24T09:47:07.759Z,964.81
2018-04-24T09:48:07.728Z,964.76
2018-04-24T09:49:07.676Z,964.76
2018-04-24T09:50:07.641Z,964.75
2018-04-24T09:51:07.674Z,964.75
2018-04-24T09:52:07.631Z,964.74
2018-04-24T09:53:07.507Z,964.79
2018-04-24T09:54:07.466Z,964.66
2018-04-24T09:55:07.468Z,964.67
2018-04-24T09:56:07.391Z,964.73
2018-04-24T09:57:07.345Z,964.73
2018-04-24T09:58:07.307Z,964.80
2018-04-24T09:59:07.261Z,964.72
2018-04-24T10:00:07.233Z,964.65
2018-04-24T10:02:39.245Z,964.70
2018-04-24T10:03:39.174Z,964.78
2018-04-24T10:04:39.134Z,964.73
2018-04-24T10:05:39.095Z,964.71
2018-04-24T10:08:11.158Z,964.70
2018-04-24T10:09:11.118Z,964.69
2018-04-24T10:10:11.008Z,964.67
2018-04-24T10:11:10.974Z,964.74
2018-04-24T10:12:10.952Z,964.70
2018-04-24T10:13:10.887Z,964.77
2018-04-24T10:14:10.852Z,964.74
2018-04-24T10:15:10.809Z,964.69
2018-04-24T10:16:10.918Z,964.69
2018-04-24T10:17:10.865Z,964.69
2018-04-24T10:18:10.853Z,964.72
2018-04-24T10:19:10.862Z,964.71
2018-04-24T10:20:10.802Z,964.73
2018-04-24T10:21:10.566Z,964.67
2018-04-24T10:22:10.528Z,964.60
2018-04-24T10:23:10.485Z,964.64
2018-04-24T10:24:10.441Z,964.63
2018-04-24T10:25:10.410Z,964.60
2018-04-24T10:26:10.366Z,964.57
2018-04-24T10:27:10.328Z,964.54
2018-04-24T10:28:10.285Z,964.52
2018-04-24T10:29:10.248Z,964.54
2018-04-24T10:30:10.201Z,964.52
2018-04-24T10:31:10.161Z,964.46
2018-04-24T10:32:10.121Z,964.45
2018-04-24T10:33:10.088Z,964.46
2018-04-24T10:34:10.051Z,964.47
2018-04-24T10:35:09.999Z,964.52
2018-04-24T10:36:09.961Z,964.48
2018-04-24T10:37:09.957Z,964.49
2018-04-24T10:38:09.885Z,964.48
2018-04-24T10:39:09.847Z,964.48
2018-04-24T10:40:09.805Z,964.50
2018-04-24T10:41:09.765Z,964.51
2018-04-24T10:42:09.720Z,964.46
2018-04-24T10:43:09.678Z,964.41
2018-04-24T10:44:09.639Z,964.38
2018-04-24T10:45:09.598Z,964.37
2018-04-24T10:46:09.564Z,964.29
2018-04-24T10:47:09.526Z,964.20
2018-04-24T10:48:09.535Z,964.20
2018-04-24T10:49:09.439Z,964.18
2018-04-24T10:50:09.401Z,964.25
2018-04-24T10:51:09.360Z,964.23
2018-04-24T10:52:09.319Z,964.24
2018-04-24T10:53:09.277Z,964.19
2018-04-24T10:54:09.238Z,964.24
2018-04-24T10:55:09.203Z,964.35
2018-04-24T10:56:09.162Z,964.34
2018-04-24T10:57:09.120Z,964.31
2018-04-24T10:58:09.082Z,964.31
2018-04-24T10:59:09.048Z,964.22
2018-04-24T11:00:09.000Z,964.24
2018-04-24T11:01:08.961Z,964.25
2018-04-24T11:02:08.920Z,964.29
2018-04-24T11:03:08.882Z,964.33
2018-04-24T11:04:08.846Z,964.31
2018-04-24T11:05:08.810Z,964.30
2018-04-24T11:06:08.762Z,964.28
2018-04-24T11:07:08.773Z,964.28
2018-04-24T11:08:08.687Z,964.28
2018-04-24T11:09:08.645Z,964.32
2018-04-24T11:10:08.621Z,964.25
2018-04-24T11:11:08.567Z,964.26
2018-04-24T11:12:08.521Z,964.21
2018-04-24T11:13:08.487Z,964.19
2018-04-24T11:14:08.464Z,964.18
2018-04-24T11:15:08.407Z,964.22
2018-04-24T11:16:08.365Z,964.26
2018-04-24T11:17:08.321Z,964.28
2018-04-24T11:18:08.291Z,964.23
2018-04-24T11:19:08.257Z,964.11
2018-04-24T11:20:08.208Z,964.17
2018-04-24T11:21:08.163Z,964.14
2018-04-24T11:22:08.142Z,964.10
2018-04-24T11:23:08.099Z,964.07
2018-04-24T11:24:08.100Z,964.10
2018-04-24T11:25:08.004Z,964.04
2018-04-24T11:26:07.968Z,964.01
2018-04-24T11:27:07.927Z,964.04
2018-04-24T11:28:07.887Z,963.99
2018-04-24T11:29:07.852Z,963.96
2018-04-24T11:30:07.812Z,963.95
2018-04-24T11:31:07.772Z,963.99
2018-04-24T11:32:07.729Z,963.91
2018-04-24T11:33:07.692Z,963.97
2018-04-24T11:34:07.687Z,963.95
2018-04-24T11:35:07.618Z,963.91
2018-04-24T11:36:07.573Z,963.85
2018-04-24T11:37:07.540Z,963.81
2018-04-24T11:38:07.496Z,963.82
2018-04-24T11:39:07.457Z,963.79
2018-04-24T11:40:07.417Z,963.75
2018-04-24T11:41:07.377Z,963.75
2018-04-24T11:42:07.348Z,963.77
2018-04-24T11:43:07.304Z,963.81
2018-04-24T11:44:07.344Z,963.80
2018-04-24T11:45:07.287Z,963.79
2018-04-24T11:46:07.183Z,963.69
2018-04-24T11:47:07.144Z,963.75
2018-04-24T11:48:07.104Z,963.69
2018-04-24T11:49:07.066Z,963.74
2018-04-24T11:50:07.026Z,963.72
2018-04-24T11:51:06.985Z,963.60
2018-04-24T11:52:06.946Z,963.70
2018-04-24T11:53:06.909Z,963.63
2018-04-24T11:54:06.868Z,963.73
2018-04-24T11:55:06.830Z,963.72
2018-04-24T11:56:06.787Z,963.68
2018-04-24T11:57:06.752Z,963.77
2018-04-24T11:58:06.711Z,963.72
2018-04-24T11:59:06.671Z,963.78
2018-04-24T12:00:06.634Z,963.75
2018-04-24T12:01:06.592Z,963.81
2018-04-24T12:02:06.554Z,963.75
2018-04-24T12:03:06.516Z,963.82
2018-04-24T12:04:06.483Z,963.77
2018-04-24T12:05:06.437Z,963.76
2018-04-24T12:06:06.395Z,963.75
2018-04-24T12:07:06.357Z,963.72
2018-04-24T12:08:06.315Z,963.71
2018-04-24T12:09:06.276Z,963.67
2018-04-24T12:10:06.273Z,963.66
2018-04-24T12:11:06.197Z,963.73
2018-04-24T12:12:06.158Z,963.71
2018-04-24T12:13:06.126Z,963.69
2018-04-24T12:14:06.080Z,963.69
2018-04-24T12:15:06.039Z,963.67
2018-04-24T12:16:05.999Z,963.74
2018-04-24T12:17:05.959Z,963.72
2018-04-24T12:18:05.921Z,963.74
2018-04-24T12:19:05.881Z,963.68
2018-04-24T12:20:05.845Z,963.62
2018-04-24T12:21:05.802Z,963.59
2018-04-24T12:22:05.775Z,963.55
2018-04-24T12:23:05.723Z,963.61
2018-04-24T12:24:05.684Z,963.60
2018-04-24T12:25:05.645Z,963.63
2018-04-24T12:26:05.606Z,963.62
2018-04-24T12:27:05.567Z,963.60
2018-04-24T12:28:05.527Z,963.57
2018-04-24T12:29:05.494Z,963.61
2018-04-24T12:30:05.448Z,963.58
2018-04-24T12:31:05.423Z,963.62